Aeroporto :
LOGIN :

Iscrizione | Disclaimer

   EN    FR    IT 

 










Sommario :    VFR   VFR Marginale   IFR   IFR Intensivo   IFR Molto Intensivo
Visibilità : 
Base nubi : 
>= 8 km
>= 3000ft
5 / 8 km
1000 / 3000 ft
1500m / 5 km
500 / 1000 ft
800 / 1500m
200 / 500 ft
< 800m
< 200 ft
Simboli :   Temporali  Nebbia  Neve Forte  Precipitazioni Forti  Vento > 20 kt
SIGMETs :   Varie  Temporali  Ghiacco  Turbolenza  Onda orograficha  Ceneri Vulcaniche






- Altitudine del aeroporto : 1674 ft
- Codice IATA : BRN


LSZB - Bern Belp

ULTIMO METAR :
  • 051720Z AUTO 30008KT 260V320 CAVOK 27/15 Q1018

METARs OBSOLETI :
  • 051650Z 29010KT 9999 FEW048 27/15 Q1018 NOSIG
  • 051620Z 28008KT 250V320 9999 FEW048 27/16 Q1018 NOSIG
  • 051550Z 30009KT 270V360 9999 FEW048 28/16 Q1018 NOSIG
  • 051520Z 31008KT 9999 FEW048 27/16 Q1019 NOSIG
  • 051450Z 30009KT 9999 FEW048 27/16 Q1019 NOSIG

TAF TAF LSZB
Valido dal 05 a 15 ore il 06 a 00 ore UTC


051425Z 0515/0524 31006KT 9999 FEW050
BECMG 0516/0519 CAVOK
ATIS : +41 22 417 40 76



MetMap, La meteo Aeronautica in un colpo d'occhio ! - Copyright ORBIFLY Dicembre 2007 - Disclaimer

ORBIFLY MET'MAP TEAM :

Programmazione e sviluppo : Alexandra Zaïnal
Concezione : Baudouin d'Aumeries
Aiuto per la programmazione : Marc-Olivier Méhu
Supporto tecnico e logistico : Manuel Goepfert
Aiuto per la traduzione : Arnaldo La Scala

Contatto : metmap@orbifly.com




FONTI E CREDITI :

   NOAA